Time;durP1;ratioP1;P1;durP2;ratioP2;P2;SDS_P1;SDS_P2;PMS_P1;PMS_P2;Temp;Humidity;BMP_temperature;BMP_pressure;BME280_temperature;BME280_humidity;BME280_pressure;Samples;Min_cycle;Max_cycle;Signal;HPM_P1;HPM_P2
2022/12/13 00:00:14;;;;;;;;;;;-4.90;99.90;;;;;;4873972;29;20103;-66
2022/12/13 00:05:20;;;;;;;;;;;-5.00;99.90;;;;;;5184095;27;19923;-68
2022/12/13 00:07:46;;;;;;;;;;;-4.90;99.90;;;;;;5146725;27;20258;-68
2022/12/13 00:10:11;;;;;;;;;;;-5.00;99.90;;;;;;5152218;27;19959;-68
2022/12/13 00:12:37;;;;;;;;;;;-5.00;99.90;;;;;;5152441;27;19926;-68
2022/12/13 00:15:03;;;;;;;;;;;-5.00;99.90;;;;;;5146000;27;19924;-65
2022/12/13 00:17:30;;;;;;;;;;;-5.10;99.90;;;;;;5086742;28;19971;-66
2022/12/13 00:19:55;;;;;;;;;;;-5.10;99.90;;;;;;5045284;28;19980;-66
2022/12/13 00:22:21;;;;;;;;;;;-5.20;99.90;;;;;;4936259;28;19931;-65
2022/12/13 00:24:46;;;;;;;;;;;-5.20;99.90;;;;;;4843662;29;19943;-65
2022/12/13 00:27:12;;;;;;;;;;;-5.20;99.90;;;;;;4767846;29;19926;-66
2022/12/13 00:29:49;;;;;;;;;;;-5.20;99.90;;;;;;5186297;27;19922;-65
2022/12/13 00:32:15;;;;;;;;;;;-5.20;99.90;;;;;;5143499;27;20365;-65
2022/12/13 00:34:41;;;;;;;;;;;-5.10;99.90;;;;;;5148319;27;20059;-66
2022/12/13 00:37:06;;;;;;;;;;;-5.20;99.90;;;;;;5126621;27;19935;-66
2022/12/13 00:39:31;;;;;;;;;;;-5.10;99.90;;;;;;5081165;27;20075;-66
2022/12/13 00:41:57;;;;;;;;;;;-5.20;99.90;;;;;;5042012;28;19933;-66
2022/12/13 00:44:22;;;;;;;;;;;-5.10;99.90;;;;;;5010814;28;19964;-66
2022/12/13 00:46:50;;;;;;;;;;;-5.20;99.90;;;;;;4990342;28;20105;-66
2022/12/13 00:49:16;;;;;;;;;;;-5.20;99.90;;;;;;4931901;28;21936;-66
2022/12/13 00:51:41;;;;;;;;;;;-5.20;99.90;;;;;;4857836;29;19927;-66
2022/12/13 00:56:57;;;;;;;;;;;-5.20;99.90;;;;;;5180831;27;19923;-69
2022/12/13 00:59:23;;;;;;;;;;;-5.30;99.90;;;;;;5154372;27;19923;-68
2022/12/13 01:01:48;;;;;;;;;;;-5.30;99.90;;;;;;5117072;27;19954;-68
2022/12/13 01:04:14;;;;;;;;;;;-5.30;99.90;;;;;;5106955;27;19923;-68
2022/12/13 01:06:43;;;;;;;;;;;-5.30;99.90;;;;;;5083156;28;19925;-68
2022/12/13 01:09:13;;;;;;;;;;;-5.30;99.90;;;;;;5039702;28;19936;-68
2022/12/13 01:11:39;;;;;;;;;;;-5.30;99.90;;;;;;5031272;28;19925;-68
2022/12/13 01:14:04;;;;;;;;;;;-5.30;99.90;;;;;;4987472;28;20362;-68
2022/12/13 01:16:30;;;;;;;;;;;-5.30;99.90;;;;;;4908173;28;20067;-68
2022/12/13 01:18:56;;;;;;;;;;;-5.30;99.90;;;;;;4791366;29;19991;-68
2022/12/13 01:21:29;;;;;;;;;;;-5.30;99.90;;;;;;5190291;27;19927;-66
2022/12/13 01:23:59;;;;;;;;;;;-5.30;99.90;;;;;;5137299;27;19932;-66
2022/12/13 01:26:24;;;;;;;;;;;-5.30;99.90;;;;;;5106803;27;19960;-66
2022/12/13 01:28:49;;;;;;;;;;;-5.30;99.90;;;;;;5075646;28;20398;-66
2022/12/13 01:31:16;;;;;;;;;;;-5.30;99.90;;;;;;5057218;28;19941;-66
2022/12/13 01:33:42;;;;;;;;;;;-5.30;99.90;;;;;;4999259;28;19973;-66
2022/12/13 01:36:09;;;;;;;;;;;-5.30;99.90;;;;;;4919541;28;20447;-66
2022/12/13 01:38:35;;;;;;;;;;;-5.40;99.90;;;;;;4877182;29;20434;-66
2022/12/13 01:41:00;;;;;;;;;;;-5.40;99.90;;;;;;4827876;29;20242;-66
2022/12/13 01:46:46;;;;;;;;;;;-5.40;99.90;;;;;;5187699;27;20142;-66
2022/12/13 01:49:14;;;;;;;;;;;-5.40;99.90;;;;;;5113918;27;20263;-66
2022/12/13 01:52:01;;;;;;;;;;;-5.50;99.90;;;;;;5164145;27;20342;-66
2022/12/13 01:54:32;;;;;;;;;;;-5.40;99.90;;;;;;5113445;27;19931;-66
2022/12/13 01:56:58;;;;;;;;;;;-5.40;99.90;;;;;;5062174;28;19978;-66
2022/12/13 01:59:23;;;;;;;;;;;-5.50;99.90;;;;;;5038065;28;19924;-66
2022/12/13 02:01:49;;;;;;;;;;;-5.50;99.90;;;;;;5006585;28;19992;-66
2022/12/13 02:04:29;;;;;;;;;;;-5.60;99.90;;;;;;4943181;28;19952;-66
2022/12/13 02:06:55;;;;;;;;;;;-5.60;99.90;;;;;;4851759;29;20018;-66
2022/12/13 02:12:15;;;;;;;;;;;-5.60;99.90;;;;;;5178397;27;19923;-68
2022/12/13 02:14:40;;;;;;;;;;;-5.60;99.90;;;;;;5139640;27;19923;-68
2022/12/13 02:17:13;;;;;;;;;;;-5.60;99.90;;;;;;5144783;27;19935;-69
2022/12/13 02:19:39;;;;;;;;;;;-5.60;99.90;;;;;;5118139;27;20294;-68
2022/12/13 02:22:10;;;;;;;;;;;-5.60;99.90;;;;;;5101907;27;19924;-68
2022/12/13 02:24:57;;;;;;;;;;;-5.50;99.90;;;;;;5017942;28;19933;-68
2022/12/13 02:27:41;;;;;;;;;;;-5.60;99.90;;;;;;4906990;28;19986;-69
2022/12/13 02:30:25;;;;;;;;;;;-5.50;99.90;;;;;;4767600;29;20029;-68
2022/12/13 02:33:10;;;;;;;;;;;-5.60;99.90;;;;;;5195537;27;20277;-69
2022/12/13 02:35:44;;;;;;;;;;;-5.50;99.90;;;;;;5101825;27;19923;-69
2022/12/13 02:38:13;;;;;;;;;;;-5.50;99.90;;;;;;5113364;27;20507;-69
2022/12/13 02:41:02;;;;;;;;;;;-5.50;99.90;;;;;;5060208;28;19991;-69
2022/12/13 02:43:31;;;;;;;;;;;-5.50;99.90;;;;;;4948327;28;20366;-69
2022/12/13 02:45:58;;;;;;;;;;;-5.50;99.90;;;;;;4959964;28;19927;-69
2022/12/13 02:48:26;;;;;;;;;;;-5.60;99.90;;;;;;4943244;28;20281;-69
2022/12/13 02:50:52;;;;;;;;;;;-5.60;99.90;;;;;;4873136;29;19988;-69
2022/12/13 02:53:18;;;;;;;;;;;-5.60;99.90;;;;;;4756090;29;19931;-68
2022/12/13 02:55:44;;;;;;;;;;;-5.70;99.90;;;;;;4687908;30;19939;-68
2022/12/13 02:58:22;;;;;;;;;;;-5.60;99.90;;;;;;5177821;27;19923;-66
2022/12/13 03:01:06;;;;;;;;;;;-5.60;99.90;;;;;;5132094;27;19927;-66
2022/12/13 03:03:38;;;;;;;;;;;-5.60;99.90;;;;;;5137994;27;19923;-66
2022/12/13 03:09:06;;;;;;;;;;;-5.70;99.90;;;;;;5054259;28;20015;-66
2022/12/13 03:14:23;;;;;;;;;;;-5.70;99.90;;;;;;4800196;29;19949;-66
2022/12/13 03:16:51;;;;;;;;;;;-5.70;99.90;;;;;;4726021;29;20388;-66
2022/12/13 03:19:27;;;;;;;;;;;-5.70;99.90;;;;;;4660278;30;19991;-66
2022/12/13 03:21:52;;;;;;;;;;;-5.80;99.90;;;;;;4590970;30;19937;-66
2022/12/13 03:24:29;;;;;;;;;;;-5.80;99.90;;;;;;5171325;27;19927;-66
2022/12/13 03:26:55;;;;;;;;;;;-5.80;99.90;;;;;;5156243;27;19932;-66
2022/12/13 03:29:20;;;;;;;;;;;-5.80;99.90;;;;;;5139409;27;20006;-66
2022/12/13 03:31:46;;;;;;;;;;;-5.70;99.90;;;;;;5136324;27;19923;-66
2022/12/13 03:34:11;;;;;;;;;;;-5.70;99.90;;;;;;5132161;27;19935;-66
2022/12/13 03:36:36;;;;;;;;;;;-5.70;99.90;;;;;;5081094;28;20591;-66
2022/12/13 03:39:02;;;;;;;;;;;-5.70;99.90;;;;;;5071457;28;19924;-66
2022/12/13 03:41:30;;;;;;;;;;;-5.70;99.90;;;;;;4972872;28;20422;-66
2022/12/13 03:44:01;;;;;;;;;;;-5.70;99.90;;;;;;4910666;28;20072;-66
2022/12/13 03:46:27;;;;;;;;;;;-5.80;99.90;;;;;;4827953;29;19982;-66
2022/12/13 03:49:04;;;;;;;;;;;-5.70;99.90;;;;;;5197397;27;20301;-66
2022/12/13 03:51:29;;;;;;;;;;;-5.60;99.90;;;;;;5158203;27;19923;-66
2022/12/13 03:53:55;;;;;;;;;;;-5.70;99.90;;;;;;5159918;27;20029;-66
2022/12/13 03:56:21;;;;;;;;;;;-5.70;99.90;;;;;;5139803;27;19939;-66
2022/12/13 03:58:46;;;;;;;;;;;-5.70;99.90;;;;;;5068150;27;20012;-66
2022/12/13 04:01:13;;;;;;;;;;;-5.70;99.90;;;;;;5005497;28;20200;-66
2022/12/13 04:03:39;;;;;;;;;;;-5.80;99.90;;;;;;4991298;28;19926;-66
2022/12/13 04:06:05;;;;;;;;;;;-5.80;99.90;;;;;;4909070;28;20530;-66
2022/12/13 04:08:30;;;;;;;;;;;-5.80;99.90;;;;;;4834656;29;20321;-66
2022/12/13 04:10:56;;;;;;;;;;;-5.80;99.90;;;;;;4765975;29;19988;-66
2022/12/13 04:16:01;;;;;;;;;;;-5.80;99.90;;;;;;5189600;27;19923;-69
2022/12/13 04:18:26;;;;;;;;;;;-5.80;99.90;;;;;;5156779;27;19927;-69
2022/12/13 04:20:52;;;;;;;;;;;-5.80;99.90;;;;;;5131151;27;20357;-69
2022/12/13 04:23:18;;;;;;;;;;;-5.80;99.90;;;;;;5134768;27;20012;-69
2022/12/13 04:25:43;;;;;;;;;;;-5.80;99.90;;;;;;5084280;27;20389;-69
2022/12/13 04:28:09;;;;;;;;;;;-5.90;99.90;;;;;;5040934;28;19925;-69
2022/12/13 04:30:34;;;;;;;;;;;-5.90;99.90;;;;;;5000930;28;20500;-68
2022/12/13 04:33:00;;;;;;;;;;;-5.90;99.90;;;;;;4904731;28;20281;-68
2022/12/13 04:35:26;;;;;;;;;;;-6.00;99.90;;;;;;4898195;29;20036;-69
2022/12/13 04:37:51;;;;;;;;;;;-6.00;99.90;;;;;;4844434;29;19928;-69
2022/12/13 04:42:54;;;;;;;;;;;-6.00;99.90;;;;;;5183581;27;19931;-69
2022/12/13 04:45:20;;;;;;;;;;;-6.00;99.90;;;;;;5149884;27;20326;-69
2022/12/13 04:47:45;;;;;;;;;;;-6.00;99.90;;;;;;5148428;27;20010;-69
2022/12/13 04:50:10;;;;;;;;;;;-6.00;99.90;;;;;;5133521;27;19938;-68
2022/12/13 04:52:36;;;;;;;;;;;-6.00;99.90;;;;;;5117594;27;20682;-69
2022/12/13 04:55:02;;;;;;;;;;;-6.00;99.90;;;;;;5079258;27;19940;-69
2022/12/13 04:57:28;;;;;;;;;;;-6.00;99.90;;;;;;5027612;28;19976;-69
2022/12/13 04:59:53;;;;;;;;;;;-6.00;99.90;;;;;;4930794;28;19932;-69
2022/12/13 05:02:19;;;;;;;;;;;-6.00;99.90;;;;;;4901330;28;20009;-69
2022/12/13 05:04:45;;;;;;;;;;;-6.00;99.90;;;;;;4823643;29;19925;-68
2022/12/13 05:07:22;;;;;;;;;;;-6.00;99.90;;;;;;5177656;27;19923;-66
2022/12/13 05:09:47;;;;;;;;;;;-6.10;99.90;;;;;;5154215;27;20353;-66
2022/12/13 05:12:13;;;;;;;;;;;-6.00;99.90;;;;;;5122043;27;19927;-66
2022/12/13 05:14:38;;;;;;;;;;;-6.00;99.90;;;;;;5131599;27;19927;-66
2022/12/13 05:17:03;;;;;;;;;;;-6.10;99.90;;;;;;5071988;28;19939;-66
2022/12/13 05:19:29;;;;;;;;;;;-6.10;99.90;;;;;;5036353;28;19932;-66
2022/12/13 05:21:55;;;;;;;;;;;-6.10;99.90;;;;;;5013106;28;19988;-65
2022/12/13 05:24:20;;;;;;;;;;;-6.10;99.90;;;;;;4951863;28;20001;-66
2022/12/13 05:26:46;;;;;;;;;;;-6.00;99.90;;;;;;4896754;28;19939;-66
2022/12/13 05:29:11;;;;;;;;;;;-6.00;99.90;;;;;;4805867;29;19921;-66
2022/12/13 05:31:44;;;;;;;;;;;-6.00;99.90;;;;;;5170493;27;19930;-66
2022/12/13 05:34:10;;;;;;;;;;;-6.00;99.90;;;;;;5153264;27;19932;-66
2022/12/13 05:36:35;;;;;;;;;;;-6.00;99.90;;;;;;5151486;27;19923;-66
2022/12/13 05:39:01;;;;;;;;;;;-6.00;99.90;;;;;;5158059;27;19949;-66
2022/12/13 05:41:27;;;;;;;;;;;-6.00;99.90;;;;;;5131088;27;20377;-66
2022/12/13 05:43:53;;;;;;;;;;;-6.00;99.90;;;;;;5111727;27;19932;-66
2022/12/13 05:46:19;;;;;;;;;;;-6.00;99.90;;;;;;5077927;27;19955;-66
2022/12/13 05:48:44;;;;;;;;;;;-6.00;99.90;;;;;;5013547;28;19925;-66
2022/12/13 05:51:10;;;;;;;;;;;-6.00;99.90;;;;;;4916887;28;19935;-66
2022/12/13 05:53:36;;;;;;;;;;;-6.00;99.90;;;;;;4853016;29;19925;-66
2022/12/13 05:56:13;;;;;;;;;;;-6.00;99.90;;;;;;5168101;27;20293;-66
2022/12/13 05:58:39;;;;;;;;;;;-6.00;99.90;;;;;;5139152;27;19928;-66
2022/12/13 06:01:06;;;;;;;;;;;-6.10;99.90;;;;;;5061272;28;19980;-66
2022/12/13 06:03:31;;;;;;;;;;;-6.10;99.90;;;;;;5082426;28;19932;-66
2022/12/13 06:05:59;;;;;;;;;;;-6.00;99.90;;;;;;5044691;28;19929;-66
2022/12/13 06:08:24;;;;;;;;;;;-6.10;99.90;;;;;;4997679;28;19929;-66
2022/12/13 06:10:54;;;;;;;;;;;-6.00;99.90;;;;;;4982735;28;19934;-66
2022/12/13 06:13:20;;;;;;;;;;;-6.00;99.90;;;;;;4932467;28;19933;-66
2022/12/13 06:15:45;;;;;;;;;;;-6.00;99.90;;;;;;4952087;28;19927;-65
2022/12/13 06:18:11;;;;;;;;;;;-6.00;99.90;;;;;;4890774;28;19957;-66
2022/12/13 06:23:13;;;;;;;;;;;-6.00;99.90;;;;;;5173835;27;19926;-68
2022/12/13 06:25:39;;;;;;;;;;;-6.10;99.90;;;;;;5142361;27;19931;-69
2022/12/13 06:28:04;;;;;;;;;;;-6.00;99.90;;;;;;5096261;27;21292;-68
2022/12/13 06:30:30;;;;;;;;;;;-6.00;99.90;;;;;;5089903;27;19931;-68
2022/12/13 06:32:56;;;;;;;;;;;-6.10;99.90;;;;;;5085411;28;20018;-69
2022/12/13 06:35:21;;;;;;;;;;;-6.10;99.90;;;;;;5056418;28;19925;-68
2022/12/13 06:37:50;;;;;;;;;;;-6.00;99.90;;;;;;5021951;28;19987;-68
2022/12/13 06:40:16;;;;;;;;;;;-6.00;99.90;;;;;;5028578;28;20324;-68
2022/12/13 06:42:41;;;;;;;;;;;-6.10;99.90;;;;;;4952652;28;19939;-68
2022/12/13 06:45:07;;;;;;;;;;;-6.10;99.90;;;;;;4817218;29;19982;-68
2022/12/13 06:47:44;;;;;;;;;;;-6.00;99.90;;;;;;5178509;27;20361;-66
2022/12/13 06:50:09;;;;;;;;;;;-6.00;99.90;;;;;;5148497;27;19931;-66
2022/12/13 06:52:35;;;;;;;;;;;-6.00;99.90;;;;;;5158404;27;19967;-66
2022/12/13 06:55:01;;;;;;;;;;;-6.00;99.90;;;;;;5132765;27;19934;-66
2022/12/13 06:57:26;;;;;;;;;;;-6.10;99.90;;;;;;5065750;28;19965;-66
2022/12/13 06:59:52;;;;;;;;;;;-6.00;99.90;;;;;;5045245;28;20372;-66
2022/12/13 07:02:17;;;;;;;;;;;-6.00;99.90;;;;;;4943085;28;20000;-66
2022/12/13 07:04:43;;;;;;;;;;;-6.00;99.90;;;;;;4864745;29;19935;-66
2022/12/13 07:07:08;;;;;;;;;;;-6.00;99.90;;;;;;4782046;29;20390;-65
2022/12/13 07:09:34;;;;;;;;;;;-6.00;99.90;;;;;;4739399;29;19983;-66
2022/12/13 07:12:07;;;;;;;;;;;-6.00;99.90;;;;;;5178449;27;19923;-65
2022/12/13 07:14:32;;;;;;;;;;;-6.00;99.90;;;;;;5143016;27;20259;-66
2022/12/13 07:16:58;;;;;;;;;;;-6.00;99.90;;;;;;5135971;27;19945;-66
2022/12/13 07:19:23;;;;;;;;;;;-6.00;99.90;;;;;;5139328;27;20293;-66
2022/12/13 07:21:49;;;;;;;;;;;-6.10;99.90;;;;;;5133955;27;19930;-66
2022/12/13 07:24:14;;;;;;;;;;;-6.10;99.90;;;;;;5072213;28;19959;-66
2022/12/13 07:26:39;;;;;;;;;;;-6.00;99.90;;;;;;4964443;28;19969;-66
2022/12/13 07:29:05;;;;;;;;;;;-6.00;99.90;;;;;;4921234;28;20314;-66
2022/12/13 07:31:33;;;;;;;;;;;-6.00;99.90;;;;;;4834779;29;19936;-66
2022/12/13 07:33:58;;;;;;;;;;;-6.00;99.90;;;;;;4759003;29;19929;-66
2022/12/13 07:39:02;;;;;;;;;;;-6.00;99.90;;;;;;5198682;27;19923;-66
2022/12/13 07:41:27;;;;;;;;;;;-6.00;99.90;;;;;;5169633;27;19922;-65
2022/12/13 07:43:53;;;;;;;;;;;-6.00;99.90;;;;;;5140025;27;20290;-66
2022/12/13 07:46:19;;;;;;;;;;;-6.00;99.90;;;;;;5106494;27;20247;-66
2022/12/13 07:48:44;;;;;;;;;;;-6.00;99.90;;;;;;5109501;27;19928;-66
2022/12/13 07:51:13;;;;;;;;;;;-6.00;99.90;;;;;;5054127;28;19932;-65
2022/12/13 07:53:38;;;;;;;;;;;-6.00;99.90;;;;;;5009145;28;19941;-65
2022/12/13 07:56:05;;;;;;;;;;;-6.00;99.90;;;;;;4904952;28;19936;-65
2022/12/13 07:58:32;;;;;;;;;;;-6.00;99.90;;;;;;4788420;29;19929;-66
2022/12/13 08:01:02;;;;;;;;;;;-6.00;99.90;;;;;;4720857;30;19930;-66
2022/12/13 08:03:39;;;;;;;;;;;-6.00;99.90;;;;;;5200107;27;19923;-66
2022/12/13 08:06:09;;;;;;;;;;;-5.90;99.90;;;;;;5167402;27;19923;-65
2022/12/13 08:08:35;;;;;;;;;;;-5.90;99.90;;;;;;5158715;27;19923;-66
2022/12/13 08:11:02;;;;;;;;;;;-5.80;99.90;;;;;;5135868;27;19924;-65
2022/12/13 08:13:27;;;;;;;;;;;-5.80;99.90;;;;;;5077974;27;19929;-65
2022/12/13 08:15:56;;;;;;;;;;;-5.80;99.90;;;;;;5015709;28;19934;-65
2022/12/13 08:18:22;;;;;;;;;;;-5.80;99.90;;;;;;4952703;28;19927;-65
2022/12/13 08:20:47;;;;;;;;;;;-5.70;99.90;;;;;;4918043;28;19981;-65
2022/12/13 08:23:13;;;;;;;;;;;-5.70;99.90;;;;;;4876599;29;19928;-66
2022/12/13 08:25:38;;;;;;;;;;;-5.60;99.90;;;;;;4786757;29;19932;-65
2022/12/13 08:28:16;;;;;;;;;;;-5.60;99.90;;;;;;5193212;27;19927;-65
2022/12/13 08:30:41;;;;;;;;;;;-5.60;99.90;;;;;;5165287;27;19923;-66
2022/12/13 08:33:07;;;;;;;;;;;-5.50;99.90;;;;;;5136003;27;20362;-65
2022/12/13 08:35:32;;;;;;;;;;;-5.50;99.90;;;;;;5126073;27;20034;-66
2022/12/13 08:37:58;;;;;;;;;;;-5.40;99.90;;;;;;5105507;27;19932;-66
2022/12/13 08:40:23;;;;;;;;;;;-5.40;99.90;;;;;;5049575;28;20373;-65
2022/12/13 08:42:49;;;;;;;;;;;-5.30;99.90;;;;;;4989930;28;19933;-66
2022/12/13 08:45:14;;;;;;;;;;;-5.20;99.90;;;;;;4878899;28;20292;-65
2022/12/13 08:47:40;;;;;;;;;;;-5.20;99.90;;;;;;4825189;29;19936;-65
2022/12/13 08:50:06;;;;;;;;;;;-5.20;99.90;;;;;;4803455;29;20694;-65
2022/12/13 08:52:38;;;;;;;;;;;-5.10;99.90;;;;;;5178456;27;20116;-66
2022/12/13 08:55:04;;;;;;;;;;;-5.10;99.90;;;;;;5129878;27;19924;-65
2022/12/13 08:57:29;;;;;;;;;;;-5.00;99.90;;;;;;5137565;27;20386;-65
2022/12/13 08:59:55;;;;;;;;;;;-4.90;99.90;;;;;;5135499;27;20034;-65
2022/12/13 09:02:20;;;;;;;;;;;-4.90;99.90;;;;;;5101251;28;19949;-65
2022/12/13 09:04:46;;;;;;;;;;;-4.80;99.90;;;;;;5079755;28;19998;-65
2022/12/13 09:07:12;;;;;;;;;;;-4.80;99.90;;;;;;5079277;28;19931;-65
2022/12/13 09:09:37;;;;;;;;;;;-4.70;99.90;;;;;;5063490;28;19928;-66
2022/12/13 09:12:03;;;;;;;;;;;-4.60;99.90;;;;;;5039932;28;20406;-65
2022/12/13 09:14:28;;;;;;;;;;;-4.60;99.90;;;;;;5021736;28;19917;-65
2022/12/13 09:19:32;;;;;;;;;;;-4.50;99.90;;;;;;5174644;27;19931;-68
2022/12/13 09:21:57;;;;;;;;;;;-4.50;99.90;;;;;;5155224;27;19923;-68
2022/12/13 09:24:23;;;;;;;;;;;-4.40;99.90;;;;;;5160996;27;20502;-68
2022/12/13 09:26:48;;;;;;;;;;;-4.30;99.90;;;;;;5148406;27;20018;-68
2022/12/13 09:29:15;;;;;;;;;;;-4.30;99.90;;;;;;5141316;27;20398;-67
2022/12/13 09:31:40;;;;;;;;;;;-4.20;99.90;;;;;;5081552;28;19987;-67
2022/12/13 09:34:06;;;;;;;;;;;-4.20;99.90;;;;;;5056410;28;19923;-68
2022/12/13 09:36:31;;;;;;;;;;;-4.10;99.90;;;;;;5078127;28;19939;-68
2022/12/13 09:38:58;;;;;;;;;;;-4.10;99.90;;;;;;5054104;28;19925;-65
2022/12/13 09:41:43;;;;;;;;;;;-3.90;99.90;;;;;;4931651;28;19991;-65
2022/12/13 09:44:22;;;;;;;;;;;-3.90;99.90;;;;;;5192690;27;19923;-65
2022/12/13 09:46:49;;;;;;;;;;;-3.80;99.90;;;;;;5153153;27;20378;-65
2022/12/13 09:49:21;;;;;;;;;;;-3.60;99.90;;;;;;5152376;27;19931;-65
2022/12/13 09:51:49;;;;;;;;;;;-3.60;99.90;;;;;;5097014;28;19933;-65
2022/12/13 09:54:19;;;;;;;;;;;-3.50;99.90;;;;;;5042756;28;19933;-65
2022/12/13 09:56:49;;;;;;;;;;;-3.40;99.90;;;;;;5053884;28;19932;-65
2022/12/13 09:59:16;;;;;;;;;;;-3.40;99.90;;;;;;5022205;28;19933;-65
2022/12/13 10:01:41;;;;;;;;;;;-3.20;99.90;;;;;;4983666;28;20428;-65
2022/12/13 10:04:10;;;;;;;;;;;-3.20;99.90;;;;;;4906171;28;19979;-65
2022/12/13 10:06:35;;;;;;;;;;;-3.10;99.90;;;;;;4786065;29;19933;-65
2022/12/13 10:11:34;;;;;;;;;;;-3.10;99.90;;;;;;5192835;27;20621;-65
2022/12/13 10:14:04;;;;;;;;;;;-3.00;99.90;;;;;;5165399;27;19930;-65
2022/12/13 10:16:33;;;;;;;;;;;-3.00;99.90;;;;;;5166042;27;20325;-66
2022/12/13 10:19:00;;;;;;;;;;;-2.90;99.90;;;;;;5134661;27;20300;-65
2022/12/13 10:21:37;;;;;;;;;;;-2.80;99.90;;;;;;5106083;27;19928;-65
2022/12/13 10:24:10;;;;;;;;;;;-2.80;99.90;;;;;;4973222;28;19934;-65
2022/12/13 10:26:36;;;;;;;;;;;-2.80;99.90;;;;;;4849452;29;19938;-65
2022/12/13 10:29:03;;;;;;;;;;;-2.70;99.90;;;;;;4772589;29;19934;-65
2022/12/13 10:31:29;;;;;;;;;;;-2.70;99.90;;;;;;4745049;29;20672;-65
2022/12/13 10:33:55;;;;;;;;;;;-2.60;99.90;;;;;;4715179;30;19927;-65
2022/12/13 10:36:34;;;;;;;;;;;-2.50;99.90;;;;;;5193819;27;19923;-65
2022/12/13 10:39:00;;;;;;;;;;;-2.50;99.90;;;;;;5187537;27;20464;-65
2022/12/13 10:41:38;;;;;;;;;;;-2.50;99.90;;;;;;5159092;27;19931;-65
2022/12/13 10:44:17;;;;;;;;;;;-2.40;99.90;;;;;;5080910;27;19947;-65
2022/12/13 10:46:50;;;;;;;;;;;-2.30;99.90;;;;;;5056579;28;19929;-65
2022/12/13 10:49:21;;;;;;;;;;;-2.20;99.90;;;;;;4962556;28;20109;-65
2022/12/13 10:51:49;;;;;;;;;;;-2.30;99.90;;;;;;4792634;29;19935;-65
2022/12/13 10:54:16;;;;;;;;;;;-2.10;99.90;;;;;;4765990;29;20374;-65
2022/12/13 10:56:46;;;;;;;;;;;-2.10;99.90;;;;;;4712712;30;19939;-65
2022/12/13 10:59:47;;;;;;;;;;;-2.10;99.90;;;;;;4644826;30;29849;-65
2022/12/13 11:02:34;;;;;;;;;;;-2.00;99.90;;;;;;5155705;27;19927;-65
2022/12/13 11:05:19;;;;;;;;;;;-1.90;99.90;;;;;;5118681;27;20369;-65
2022/12/13 11:07:45;;;;;;;;;;;-1.90;99.90;;;;;;5092715;28;19931;-65
2022/12/13 11:10:29;;;;;;;;;;;-1.90;99.90;;;;;;5010535;28;19977;-66
2022/12/13 11:13:00;;;;;;;;;;;-1.90;99.90;;;;;;4946655;28;20252;-65
2022/12/13 11:15:28;;;;;;;;;;;-1.80;99.90;;;;;;4893801;29;19991;-66
2022/12/13 11:17:55;;;;;;;;;;;-1.70;99.90;;;;;;4823785;29;19929;-66
2022/12/13 11:20:29;;;;;;;;;;;-1.70;99.90;;;;;;4784594;29;19986;-66
2022/12/13 11:23:01;;;;;;;;;;;-1.60;99.90;;;;;;4705424;30;19942;-66
2022/12/13 11:25:34;;;;;;;;;;;-1.50;99.90;;;;;;4698649;30;19922;-66
2022/12/13 11:28:33;;;;;;;;;;;-1.50;99.90;;;;;;5196915;27;19922;-66
2022/12/13 11:31:03;;;;;;;;;;;-1.40;99.90;;;;;;5152707;27;19923;-66
2022/12/13 11:33:36;;;;;;;;;;;-1.40;99.90;;;;;;5103400;27;19930;-66
2022/12/13 11:36:05;;;;;;;;;;;-1.40;99.90;;;;;;5125892;27;19928;-65
2022/12/13 11:38:33;;;;;;;;;;;-1.30;99.90;;;;;;5023361;28;20328;-66
2022/12/13 11:41:02;;;;;;;;;;;-1.40;99.90;;;;;;4986199;28;19925;-65
2022/12/13 11:43:33;;;;;;;;;;;-1.20;99.90;;;;;;4881906;29;20521;-65
2022/12/13 11:46:01;;;;;;;;;;;-1.30;99.90;;;;;;4825448;29;19929;-66
2022/12/13 11:48:35;;;;;;;;;;;-1.20;99.90;;;;;;4859936;29;19934;-65
2022/12/13 11:51:04;;;;;;;;;;;-1.20;99.90;;;;;;4804400;29;19917;-68
2022/12/13 11:53:41;;;;;;;;;;;-1.10;99.90;;;;;;5194924;27;19926;-65
2022/12/13 11:56:14;;;;;;;;;;;-1.20;99.90;;;;;;5164846;27;20369;-65
2022/12/13 11:58:39;;;;;;;;;;;-1.10;99.90;;;;;;5148381;27;19928;-65
2022/12/13 12:01:08;;;;;;;;;;;-1.00;99.90;;;;;;5148743;27;19932;-65
2022/12/13 12:03:45;;;;;;;;;;;-1.00;99.90;;;;;;5104336;28;19947;-66
2022/12/13 12:06:14;;;;;;;;;;;-0.90;99.90;;;;;;5100848;27;19924;-65
2022/12/13 12:08:43;;;;;;;;;;;-1.00;99.90;;;;;;5066067;28;19935;-65
2022/12/13 12:11:09;;;;;;;;;;;-0.90;99.90;;;;;;4996489;28;19981;-65
2022/12/13 12:13:41;;;;;;;;;;;-0.90;99.90;;;;;;4919676;28;19978;-65
2022/12/13 12:16:12;;;;;;;;;;;-0.90;99.90;;;;;;4850241;29;19921;-65
2022/12/13 12:18:50;;;;;;;;;;;-0.80;99.90;;;;;;5198774;27;20273;-65
2022/12/13 12:21:22;;;;;;;;;;;-0.80;99.90;;;;;;5162714;27;19933;-65
2022/12/13 12:23:55;;;;;;;;;;;-0.70;99.90;;;;;;5137683;27;19930;-65
2022/12/13 12:26:32;;;;;;;;;;;-0.70;99.90;;;;;;4948534;28;1910441;-64
2022/12/13 12:29:24;;;;;;;;;;;-0.60;99.90;;;;;;5039173;28;20269;-65
2022/12/13 12:32:02;;;;;;;;;;;-0.60;99.90;;;;;;5070535;28;19978;-65
2022/12/13 12:34:36;;;;;;;;;;;-0.60;99.90;;;;;;5046681;28;20394;-64
2022/12/13 12:37:05;;;;;;;;;;;-0.60;99.90;;;;;;5061318;28;20015;-64
2022/12/13 12:39:49;;;;;;;;;;;-0.50;99.90;;;;;;5065544;28;19920;-64
2022/12/13 12:42:14;;;;;;;;;;;-0.50;99.90;;;;;;5061696;28;19920;-65
2022/12/13 12:44:52;;;;;;;;;;;-0.50;99.90;;;;;;5064640;28;19929;-64
2022/12/13 12:47:23;;;;;;;;;;;-0.50;99.90;;;;;;5054322;28;19929;-64
2022/12/13 12:49:52;;;;;;;;;;;-0.40;99.90;;;;;;5055538;28;20007;-64
2022/12/13 12:52:26;;;;;;;;;;;-0.50;99.90;;;;;;5033734;28;19929;-64
2022/12/13 12:55:02;;;;;;;;;;;-0.40;99.90;;;;;;5058770;28;19990;-64
2022/12/13 12:57:27;;;;;;;;;;;-0.40;99.90;;;;;;5053474;28;19955;-64
2022/12/13 13:00:02;;;;;;;;;;;-0.30;99.90;;;;;;5054525;28;19928;-64
2022/12/13 13:02:31;;;;;;;;;;;-0.40;99.90;;;;;;5059870;28;19927;-64
2022/12/13 13:05:03;;;;;;;;;;;-0.40;99.90;;;;;;5061698;28;19939;-63
2022/12/13 13:07:32;;;;;;;;;;;-0.40;99.90;;;;;;5053349;28;20027;-64
2022/12/13 13:09:58;;;;;;;;;;;-0.40;99.90;;;;;;5053934;28;19938;-64
2022/12/13 13:12:24;;;;;;;;;;;-0.40;99.90;;;;;;5054258;28;19931;-64
2022/12/13 13:14:49;;;;;;;;;;;-0.50;99.90;;;;;;5053278;28;19925;-64
2022/12/13 13:17:15;;;;;;;;;;;-0.50;99.90;;;;;;5053764;28;20028;-64
2022/12/13 13:19:43;;;;;;;;;;;-0.60;99.90;;;;;;5055987;28;20390;-64
2022/12/13 13:22:24;;;;;;;;;;;-0.60;99.90;;;;;;5057365;28;19964;-64
2022/12/13 13:24:58;;;;;;;;;;;-0.60;99.90;;;;;;5057732;28;19925;-64
2022/12/13 13:27:29;;;;;;;;;;;-0.60;99.90;;;;;;5082284;28;19920;-64
2022/12/13 13:30:03;;;;;;;;;;;-0.50;99.90;;;;;;5062205;28;19924;-64
2022/12/13 13:32:30;;;;;;;;;;;-0.50;99.90;;;;;;5058134;28;20050;-64
2022/12/13 13:35:15;;;;;;;;;;;-0.60;99.90;;;;;;5063180;28;20261;-64
2022/12/13 13:37:45;;;;;;;;;;;-0.60;99.90;;;;;;5060420;28;20011;-64
2022/12/13 13:40:11;;;;;;;;;;;-0.60;99.90;;;;;;5061834;28;20497;-64
2022/12/13 13:42:56;;;;;;;;;;;-0.60;99.90;;;;;;5062970;28;20014;-64
2022/12/13 13:45:23;;;;;;;;;;;-0.60;99.90;;;;;;5061786;28;20292;-63
2022/12/13 13:48:09;;;;;;;;;;;-0.60;99.90;;;;;;5042807;28;19956;-64
2022/12/13 13:50:44;;;;;;;;;;;-0.50;99.90;;;;;;5044620;28;19927;-64
2022/12/13 13:53:09;;;;;;;;;;;-0.50;99.90;;;;;;5056786;28;20370;-64
2022/12/13 13:55:51;;;;;;;;;;;-0.50;99.90;;;;;;5061150;28;19921;-63
2022/12/13 13:58:28;;;;;;;;;;;-0.50;99.90;;;;;;5059491;28;19925;-64
2022/12/13 14:00:54;;;;;;;;;;;-0.60;99.90;;;;;;5044443;28;20372;-64
2022/12/13 14:03:39;;;;;;;;;;;-0.60;99.90;;;;;;5058189;28;20362;-64
2022/12/13 14:06:34;;;;;;;;;;;-0.70;99.90;;;;;;5062746;28;19924;-64
2022/12/13 14:09:10;;;;;;;;;;;-0.80;99.90;;;;;;5039846;28;20360;-64
2022/12/13 14:11:39;;;;;;;;;;;-0.70;99.90;;;;;;5062101;28;19920;-64
2022/12/13 14:14:17;;;;;;;;;;;-0.90;99.90;;;;;;5050192;28;19920;-63
2022/12/13 14:16:48;;;;;;;;;;;-0.90;99.90;;;;;;5056073;28;19960;-64
2022/12/13 14:19:26;;;;;;;;;;;-1.00;99.90;;;;;;5065690;28;20367;-64
2022/12/13 14:22:14;;;;;;;;;;;-1.10;99.90;;;;;;5047637;28;19921;-64
2022/12/13 14:24:48;;;;;;;;;;;-1.20;99.90;;;;;;5056648;28;19951;-64
2022/12/13 14:27:18;;;;;;;;;;;-1.20;99.90;;;;;;5052024;28;19932;-64
2022/12/13 14:29:44;;;;;;;;;;;-1.30;99.90;;;;;;5066086;28;19924;-64
2022/12/13 14:32:30;;;;;;;;;;;-1.30;99.90;;;;;;5067549;28;19925;-64
2022/12/13 14:34:56;;;;;;;;;;;-1.40;99.90;;;;;;5051663;28;19921;-64
2022/12/13 14:37:26;;;;;;;;;;;-1.50;99.90;;;;;;5052854;28;19924;-64
2022/12/13 14:39:52;;;;;;;;;;;-1.50;99.90;;;;;;5060412;28;20351;-64
2022/12/13 14:42:26;;;;;;;;;;;-1.60;99.90;;;;;;5079739;28;19966;-64
2022/12/13 14:44:51;;;;;;;;;;;-1.70;99.90;;;;;;5061939;28;19966;-64
2022/12/13 14:47:18;;;;;;;;;;;-1.70;99.90;;;;;;5070330;28;20272;-64
2022/12/13 14:49:49;;;;;;;;;;;-1.80;99.90;;;;;;5065084;28;20268;-64
2022/12/13 14:52:18;;;;;;;;;;;-1.90;99.90;;;;;;5057842;28;20278;-64
2022/12/13 14:54:54;;;;;;;;;;;-1.80;99.90;;;;;;5057003;28;19924;-64
2022/12/13 14:57:23;;;;;;;;;;;-1.90;99.90;;;;;;5057646;28;19959;-64
2022/12/13 14:59:51;;;;;;;;;;;-1.90;99.90;;;;;;5067409;28;20260;-64